Time;durP1;ratioP1;P1;durP2;ratioP2;P2;SDS_P1;SDS_P2;PMS_P1;PMS_P2;Temp;Humidity;BMP_temperature;BMP_pressure;BME280_temperature;BME280_humidity;BME280_pressure;Samples;Min_cycle;Max_cycle;Signal;HPM_P1;HPM_P2
2021/05/27 00:01:44;;;;;;;10.95;2.03;;;39.20;9.70;;;;;;5105347;28;20049;-61
2021/05/27 00:04:11;;;;;;;14.07;2.20;;;39.10;9.00;;;;;;5098687;28;20065;-59
2021/05/27 00:06:37;;;;;;;7.97;1.98;;;39.00;9.30;;;;;;5100342;28;20053;-64
2021/05/27 00:09:05;;;;;;;8.82;2.15;;;39.00;9.30;;;;;;5103352;28;20112;-63
2021/05/27 01:19:54;;;;;;;14.18;1.95;;;36.90;8.60;;;;;;5073680;23;20136;-57
2021/05/27 01:22:24;;;;;;;16.27;2.17;;;36.80;8.60;;;;;;5034338;28;20113;-57
2021/05/27 01:24:50;;;;;;;18.95;2.38;;;36.60;8.80;;;;;;5037680;28;20153;-57
2021/05/27 01:27:18;;;;;;;28.13;3.05;;;36.50;8.70;;;;;;5040187;28;20093;-56
2021/05/27 01:29:51;;;;;;;29.88;3.40;;;36.30;8.70;;;;;;5044866;28;20177;-57
2021/05/27 01:32:18;;;;;;;40.90;3.60;;;36.10;9.10;;;;;;5040902;28;20518;-56
2021/05/27 01:34:44;;;;;;;27.63;3.55;;;36.00;9.50;;;;;;5038015;28;20073;-57
2021/05/27 01:37:11;;;;;;;23.83;2.60;;;35.90;9.70;;;;;;5042497;28;20160;-59
2021/05/27 01:39:38;;;;;;;21.75;3.10;;;35.80;9.80;;;;;;5041263;28;20562;-56
2021/05/27 01:42:05;;;;;;;31.50;3.50;;;35.70;10.10;;;;;;5038080;28;20140;-54
2021/05/27 01:44:31;;;;;;;32.70;4.13;;;35.60;10.20;;;;;;5043445;28;20144;-56
2021/05/27 01:46:58;;;;;;;28.95;4.05;;;35.60;9.90;;;;;;5038201;28;20101;-59
2021/05/27 01:49:24;;;;;;;28.55;4.13;;;35.80;9.90;;;;;;5041080;28;20161;-54
2021/05/27 01:51:51;;;;;;;31.42;5.00;;;35.90;9.90;;;;;;5042050;28;20128;-55
2021/05/27 01:54:19;;;;;;;33.05;4.22;;;35.70;9.90;;;;;;5044746;28;20074;-57
2021/05/27 01:56:45;;;;;;;36.13;4.30;;;35.60;10.10;;;;;;5040353;28;20513;-54
2021/05/27 01:59:12;;;;;;;33.75;4.32;;;35.20;10.30;;;;;;5037764;28;20466;-57
2021/05/27 02:01:38;;;;;;;24.90;4.15;;;35.10;10.50;;;;;;5040575;28;20541;-55
2021/05/27 02:04:05;;;;;;;26.85;4.25;;;34.90;10.70;;;;;;5038843;28;20078;-56
2021/05/27 02:06:32;;;;;;;26.25;3.38;;;34.70;10.70;;;;;;5038084;28;20175;-56
2021/05/27 02:09:10;;;;;;;33.63;3.75;;;34.60;10.70;;;;;;5038685;28;20474;-53
2021/05/27 02:11:44;;;;;;;42.28;5.20;;;34.40;10.40;;;;;;5038665;28;20081;-54
2021/05/27 02:14:12;;;;;;;25.45;4.20;;;34.30;10.40;;;;;;5039459;28;20070;-52
2021/05/27 02:16:40;;;;;;;44.75;4.70;;;34.20;10.40;;;;;;5037818;28;20169;-53
2021/05/27 02:19:08;;;;;;;29.33;3.80;;;34.10;10.40;;;;;;5032607;28;20105;-54
2021/05/27 02:21:35;;;;;;;23.50;3.60;;;34.00;10.30;;;;;;5043859;28;20078;-55
2021/05/27 02:24:03;;;;;;;19.77;3.17;;;33.90;11.00;;;;;;5040394;28;20121;-54
2021/05/27 02:26:30;;;;;;;39.65;4.38;;;33.70;10.50;;;;;;5033913;28;20074;-55
2021/05/27 02:29:00;;;;;;;27.95;4.70;;;33.60;10.60;;;;;;5037067;28;20446;-54
2021/05/27 02:31:27;;;;;;;21.83;3.45;;;33.50;10.80;;;;;;5041417;28;20081;-53
2021/05/27 02:33:55;;;;;;;29.60;4.40;;;33.40;17.00;;;;;;5039090;28;20044;-55
2021/05/27 02:36:22;;;;;;;22.05;3.28;;;33.30;10.90;;;;;;5038453;28;20078;-56
2021/05/27 02:38:51;;;;;;;20.75;3.28;;;33.20;15.40;;;;;;5038015;28;20168;-54
2021/05/27 02:41:19;;;;;;;27.38;3.80;;;33.20;11.40;;;;;;5039130;28;20080;-56
2021/05/27 02:43:46;;;;;;;25.13;3.95;;;33.10;11.40;;;;;;5040709;28;20082;-52
2021/05/27 02:46:12;;;;;;;21.42;3.40;;;33.00;11.50;;;;;;5033399;28;20074;-52
2021/05/27 02:48:39;;;;;;;17.58;3.08;;;32.90;11.60;;;;;;5038087;28;20106;-58
2021/05/27 02:51:05;;;;;;;21.70;4.32;;;32.90;11.80;;;;;;5039362;28;20073;-55
2021/05/27 02:53:32;;;;;;;15.82;3.47;;;32.80;12.10;;;;;;5036555;28;20542;-51
2021/05/27 02:55:59;;;;;;;16.65;2.90;;;32.70;12.00;;;;;;5055604;28;20124;-54
2021/05/27 02:58:25;;;;;;;10.40;3.35;;;32.60;12.10;;;;;;5037612;28;20153;-50
2021/05/27 03:00:53;;;;;;;16.20;3.38;;;32.50;12.10;;;;;;5042781;28;20080;-56
2021/05/27 03:03:22;;;;;;;10.82;3.40;;;32.40;12.20;;;;;;5039280;28;20474;-56
2021/05/27 03:05:49;;;;;;;16.92;2.35;;;32.20;11.90;;;;;;5036934;28;20069;-55
2021/05/27 03:08:16;;;;;;;18.30;2.83;;;32.60;28.00;;;;;;5039658;28;20150;-59
2021/05/27 03:10:43;;;;;;;24.80;3.08;;;32.10;12.60;;;;;;5037147;28;20082;-64
2021/05/27 03:13:10;;;;;;;17.75;2.70;;;32.00;12.40;;;;;;5046234;28;20136;-65
2021/05/27 03:15:37;;;;;;;16.40;3.20;;;32.00;12.50;;;;;;5042785;28;20085;-65
2021/05/27 03:18:08;;;;;;;18.13;3.17;;;31.90;12.50;;;;;;5042422;28;20081;-65
2021/05/27 03:20:36;;;;;;;12.35;2.30;;;31.90;12.50;;;;;;5041120;28;20105;-65
2021/05/27 03:23:04;;;;;;;13.20;2.30;;;31.80;12.50;;;;;;5039542;28;20076;-64
2021/05/27 03:25:31;;;;;;;11.57;2.72;;;31.70;12.50;;;;;;5040113;28;20438;-66
2021/05/27 03:27:57;;;;;;;15.07;2.22;;;31.70;12.50;;;;;;5041944;28;20411;-65
2021/05/27 03:30:24;;;;;;;9.05;2.47;;;31.60;12.50;;;;;;5039620;28;20084;-65
2021/05/27 03:32:51;;;;;;;8.82;1.90;;;31.50;13.10;;;;;;5039491;28;20149;-66
2021/05/27 03:35:19;;;;;;;14.23;2.13;;;31.50;12.70;;;;;;5040979;28;20117;-65
2021/05/27 03:37:46;;;;;;;17.88;3.90;;;31.40;12.70;;;;;;5042521;28;20161;-66
2021/05/27 03:40:13;;;;;;;12.85;2.50;;;30.90;28.80;;;;;;5041318;28;20188;-65
2021/05/27 03:42:49;;;;;;;11.75;2.80;;;31.00;27.00;;;;;;5039825;28;20164;-65
2021/05/27 03:45:19;;;;;;;15.68;2.72;;;31.40;16.60;;;;;;5038931;28;20029;-64
2021/05/27 03:47:45;;;;;;;18.48;3.78;;;31.10;13.10;;;;;;5040861;28;20089;-66
2021/05/27 03:50:16;;;;;;;14.23;2.38;;;31.10;13.20;;;;;;5038379;28;20127;-65
2021/05/27 03:52:43;;;;;;;11.60;1.92;;;31.00;13.10;;;;;;5038031;28;20161;-66
2021/05/27 03:55:12;;;;;;;21.40;2.47;;;30.90;19.90;;;;;;5042521;28;20156;-66
2021/05/27 03:57:39;;;;;;;16.95;2.70;;;30.90;12.80;;;;;;5039649;28;20028;-65
2021/05/27 04:02:54;;;;;;;20.98;3.47;;;;;;;;;;5041729;28;20092;-65
2021/05/27 04:08:06;;;;;;;26.48;3.58;;;30.40;25.40;;;;;;5039033;28;20064;-64
2021/05/27 04:10:33;;;;;;;57.08;11.15;;;30.60;16.90;;;;;;5037614;28;20483;-66
2021/05/27 04:13:01;;;;;;;41.92;9.63;;;30.50;47.60;;;;;;5038758;28;20107;-65
2021/05/27 04:15:32;;;;;;;28.40;4.20;;;30.50;18.50;;;;;;5044096;28;20079;-67
2021/05/27 04:18:00;;;;;;;13.65;2.83;;;30.50;21.80;;;;;;5039962;28;20418;-66
2021/05/27 04:20:29;;;;;;;29.75;3.80;;;30.30;15.50;;;;;;5043633;28;20049;-67
2021/05/27 04:22:57;;;;;;;21.48;3.70;;;30.60;42.80;;;;;;5044876;28;20021;-66
2021/05/27 04:25:25;;;;;;;20.10;3.35;;;;;;;;;;5041605;28;20041;-65
2021/05/27 04:27:53;;;;;;;11.38;3.33;;;30.20;32.00;;;;;;5045741;28;20032;-65
2021/05/27 04:30:21;;;;;;;33.22;8.45;;;30.10;13.00;;;;;;5043402;28;20044;-65
2021/05/27 04:32:54;;;;;;;40.42;13.10;;;30.10;34.80;;;;;;5045067;28;20500;-65
2021/05/27 04:35:33;;;;;;;20.25;5.20;;;29.80;20.90;;;;;;5044276;28;20074;-65
2021/05/27 04:38:20;;;;;;;12.23;3.17;;;30.10;13.40;;;;;;5041974;28;20073;-65
2021/05/27 04:40:48;;;;;;;29.08;8.38;;;30.00;13.60;;;;;;5046531;28;21493;-66
2021/05/27 04:43:17;;;;;;;13.60;3.35;;;30.00;13.70;;;;;;5046671;28;20446;-65
2021/05/27 04:45:43;;;;;;;10.45;2.58;;;30.00;13.80;;;;;;5042465;28;20478;-66
2021/05/27 04:48:12;;;;;;;14.05;2.55;;;30.00;13.90;;;;;;5043786;28;20203;-65
2021/05/27 04:50:40;;;;;;;17.00;2.80;;;29.80;14.00;;;;;;5045295;28;20077;-65
2021/05/27 04:53:08;;;;;;;9.50;2.65;;;29.80;14.20;;;;;;5044371;28;20074;-66
2021/05/27 04:55:34;;;;;;;16.20;2.92;;;29.70;14.20;;;;;;5043141;28;20073;-65
2021/05/27 04:58:02;;;;;;;18.50;3.65;;;29.60;14.30;;;;;;5044146;28;20541;-66
2021/05/27 05:00:29;;;;;;;21.13;5.63;;;29.60;14.30;;;;;;5041207;28;20184;-66
2021/05/27 05:02:57;;;;;;;55.28;17.98;;;29.60;14.30;;;;;;5040550;28;20229;-66
2021/05/27 05:05:25;;;;;;;31.60;9.70;;;29.50;43.30;;;;;;5043953;28;20074;-66
2021/05/27 05:07:54;;;;;;;23.55;7.25;;;28.90;33.30;;;;;;5042381;28;20090;-63
2021/05/27 05:10:23;;;;;;;8.25;3.10;;;29.00;33.10;;;;;;5043949;28;20092;-65
2021/05/27 05:12:51;;;;;;;14.45;3.22;;;29.30;14.30;;;;;;5039174;28;20539;-65
2021/05/27 05:15:23;;;;;;;14.20;3.17;;;29.20;14.10;;;;;;5042301;28;20077;-65
2021/05/27 05:17:52;;;;;;;9.40;2.63;;;29.20;13.70;;;;;;5041620;28;20452;-65
2021/05/27 05:20:20;;;;;;;7.53;2.50;;;29.30;13.20;;;;;;5043190;28;20578;-65
2021/05/27 05:22:48;;;;;;;13.05;2.20;;;29.30;13.30;;;;;;5044375;28;20101;-65
2021/05/27 05:25:16;;;;;;;12.52;2.25;;;29.40;13.60;;;;;;5042611;28;20145;-66
2021/05/27 05:27:43;;;;;;;8.07;1.63;;;29.40;13.10;;;;;;5042641;28;20078;-66
2021/05/27 05:30:11;;;;;;;11.30;2.05;;;29.40;13.20;;;;;;5045574;28;20084;-70
2021/05/27 05:32:38;;;;;;;7.03;1.80;;;29.20;38.40;;;;;;5041541;28;20070;-66
2021/05/27 05:35:07;;;;;;;8.70;1.60;;;29.30;13.20;;;;;;5043748;28;20446;-68
2021/05/27 05:37:33;;;;;;;11.55;1.98;;;29.10;13.80;;;;;;5039195;28;20546;-66
2021/05/27 05:40:00;;;;;;;13.57;2.97;;;29.00;14.00;;;;;;5045149;28;20094;-66
2021/05/27 05:42:26;;;;;;;7.82;2.00;;;29.00;13.80;;;;;;5045287;28;20070;-66
2021/05/27 05:44:53;;;;;;;7.38;2.20;;;;;;;;;;5039156;28;20117;-66
2021/05/27 05:47:20;;;;;;;6.95;2.10;;;29.10;17.00;;;;;;5038942;28;20058;-66
2021/05/27 05:49:49;;;;;;;7.40;1.90;;;29.00;14.00;;;;;;5044167;28;20078;-66
2021/05/27 05:52:16;;;;;;;7.63;1.60;;;29.00;13.90;;;;;;5047516;28;20509;-65
2021/05/27 05:54:42;;;;;;;9.30;1.80;;;29.00;13.80;;;;;;5041078;28;20082;-66
2021/05/27 05:57:09;;;;;;;18.50;2.42;;;28.90;13.80;;;;;;5040578;28;20074;-66
2021/05/27 05:59:35;;;;;;;10.98;2.40;;;28.90;13.70;;;;;;5043483;28;20613;-65
2021/05/27 06:02:05;;;;;;;7.10;2.00;;;28.90;13.80;;;;;;5041634;28;20169;-66
2021/05/27 06:04:31;;;;;;;9.35;1.58;;;28.80;13.70;;;;;;5038048;28;20097;-67
2021/05/27 06:06:58;;;;;;;11.23;2.20;;;28.70;23.50;;;;;;5039682;28;20074;-67
2021/05/27 06:09:25;;;;;;;11.20;1.80;;;28.60;27.00;;;;;;5044895;28;20168;-65
2021/05/27 06:11:52;;;;;;;9.90;1.77;;;28.70;14.10;;;;;;5038046;28;20113;-64
2021/05/27 06:14:20;;;;;;;12.85;1.90;;;28.90;18.40;;;;;;5045890;28;20153;-64
2021/05/27 06:16:47;;;;;;;10.40;2.00;;;28.70;18.60;;;;;;5038062;28;20025;-64
2021/05/27 06:19:14;;;;;;;7.45;1.80;;;28.60;26.80;;;;;;5035432;28;20136;-65
2021/05/27 06:21:41;;;;;;;4.68;1.52;;;28.30;26.20;;;;;;5037465;28;20420;-64
2021/05/27 06:24:09;;;;;;;11.77;1.40;;;28.10;27.40;;;;;;5039164;28;20072;-64
2021/05/27 06:26:36;;;;;;;7.93;1.40;;;28.10;38.80;;;;;;5035523;28;20183;-64
2021/05/27 06:29:04;;;;;;;6.55;1.73;;;28.20;13.20;;;;;;5038709;28;20088;-65
2021/05/27 06:31:31;;;;;;;8.38;1.75;;;28.10;13.20;;;;;;5035636;28;20097;-65
2021/05/27 06:33:59;;;;;;;5.03;1.45;;;28.10;13.50;;;;;;5038558;28;20139;-65
2021/05/27 06:36:26;;;;;;;7.47;1.98;;;27.80;13.10;;;;;;5036348;28;20527;-65
2021/05/27 06:38:52;;;;;;;2.85;1.48;;;27.70;26.00;;;;;;5043238;28;20106;-65
2021/05/27 06:41:19;;;;;;;4.55;1.50;;;28.20;34.90;;;;;;5042095;28;20498;-65
2021/05/27 06:43:46;;;;;;;5.40;1.40;;;;;;;;;;5040418;28;20143;-65
2021/05/27 06:46:13;;;;;;;6.85;1.65;;;;;;;;;;5039458;28;20082;-65
2021/05/27 06:48:41;;;;;;;7.03;1.95;;;27.50;14.40;;;;;;5037421;28;20425;-65
2021/05/27 06:51:07;;;;;;;7.07;1.92;;;26.90;30.60;;;;;;5036615;28;20112;-65
2021/05/27 06:53:34;;;;;;;4.95;1.60;;;27.20;42.40;;;;;;5039615;28;20053;-65
2021/05/27 06:56:01;;;;;;;7.53;1.70;;;26.80;46.20;;;;;;5037847;28;20072;-65
2021/05/27 06:58:27;;;;;;;5.03;2.28;;;27.40;14.20;;;;;;5037135;28;20082;-65
2021/05/27 07:00:54;;;;;;;12.25;2.55;;;27.30;14.50;;;;;;5036965;28;20198;-65
2021/05/27 07:03:22;;;;;;;9.48;2.28;;;27.30;23.40;;;;;;5041809;28;20082;-65
2021/05/27 07:05:48;;;;;;;4.45;2.05;;;27.30;14.40;;;;;;5035120;28;20082;-65
2021/05/27 07:08:16;;;;;;;4.60;1.92;;;27.20;14.20;;;;;;5035252;28;20586;-65
2021/05/27 07:10:44;;;;;;;6.13;2.08;;;27.20;13.40;;;;;;5041338;28;20063;-64
2021/05/27 07:13:11;;;;;;;7.95;1.85;;;27.30;13.80;;;;;;5034182;28;20084;-65
2021/05/27 07:15:39;;;;;;;4.38;1.70;;;27.20;13.40;;;;;;5035903;28;20070;-65
2021/05/27 07:18:06;;;;;;;6.03;1.50;;;27.30;13.10;;;;;;5033624;28;20077;-65
2021/05/27 07:20:34;;;;;;;3.95;1.50;;;27.30;21.90;;;;;;5033055;28;20060;-65
2021/05/27 07:23:00;;;;;;;4.45;1.30;;;27.30;13.10;;;;;;5035914;28;20065;-65
2021/05/27 07:25:27;;;;;;;5.15;1.73;;;27.30;12.40;;;;;;5034997;28;20074;-66
2021/05/27 07:27:56;;;;;;;6.38;1.40;;;27.30;12.20;;;;;;5039276;28;20054;-66
2021/05/27 07:30:26;;;;;;;5.53;1.38;;;27.30;24.20;;;;;;5035784;28;20033;-65
2021/05/27 07:32:54;;;;;;;2.50;1.30;;;27.30;17.00;;;;;;5037088;28;20211;-66
2021/05/27 07:35:21;;;;;;;2.38;1.10;;;27.30;12.00;;;;;;5033894;28;20078;-66
2021/05/27 07:37:47;;;;;;;6.75;1.55;;;27.30;17.90;;;;;;5034201;28;20048;-66
2021/05/27 07:40:14;;;;;;;2.85;1.30;;;27.30;12.20;;;;;;5038558;28;20094;-64
2021/05/27 07:42:41;;;;;;;3.03;1.00;;;27.20;17.10;;;;;;5035164;28;20102;-64
2021/05/27 07:45:08;;;;;;;6.05;0.90;;;27.20;12.20;;;;;;5035184;28;20061;-65
2021/05/27 07:47:35;;;;;;;1.83;1.00;;;27.20;12.30;;;;;;5033879;28;20150;-65
2021/05/27 07:50:04;;;;;;;7.93;0.90;;;27.10;12.20;;;;;;5038177;28;20066;-64
2021/05/27 07:52:31;;;;;;;4.75;0.95;;;27.10;16.90;;;;;;5036147;28;20085;-64
2021/05/27 07:54:57;;;;;;;1.65;0.90;;;27.10;12.30;;;;;;5036687;28;20605;-64
2021/05/27 07:57:24;;;;;;;5.55;1.10;;;27.10;11.90;;;;;;5040060;28;20077;-64
2021/05/27 07:59:50;;;;;;;7.75;1.30;;;26.90;12.20;;;;;;5034733;28;20129;-64
2021/05/27 08:02:17;;;;;;;5.32;1.45;;;27.00;12.20;;;;;;5035755;28;20148;-64
2021/05/27 08:04:43;;;;;;;5.15;1.52;;;27.00;12.40;;;;;;5035960;28;20158;-64
2021/05/27 08:07:11;;;;;;;8.15;1.70;;;26.90;12.20;;;;;;5039031;28;20069;-64
2021/05/27 08:09:38;;;;;;;6.30;1.98;;;26.80;12.40;;;;;;5036517;28;20078;-64
2021/05/27 08:12:08;;;;;;;6.28;2.33;;;26.80;17.40;;;;;;5033382;28;20068;-64
2021/05/27 08:14:35;;;;;;;10.77;2.90;;;26.30;12.90;;;;;;5038353;28;20085;-64
2021/05/27 08:17:02;;;;;;;5.85;1.92;;;26.70;13.10;;;;;;5036021;28;20070;-64
2021/05/27 08:19:28;;;;;;;6.25;1.80;;;26.70;12.50;;;;;;5035988;28;20105;-64
2021/05/27 08:21:55;;;;;;;5.63;1.33;;;26.70;13.10;;;;;;5035206;28;20066;-63
2021/05/27 08:24:22;;;;;;;3.22;1.20;;;26.60;17.90;;;;;;5035559;28;20071;-63
2021/05/27 08:26:48;;;;;;;3.67;1.30;;;26.60;13.20;;;;;;5033487;28;20065;-65
2021/05/27 08:29:15;;;;;;;4.30;1.55;;;26.50;14.00;;;;;;5033028;28;20428;-65
2021/05/27 08:31:41;;;;;;;4.25;1.10;;;26.40;12.90;;;;;;5036268;28;20078;-65
2021/05/27 08:34:09;;;;;;;2.90;0.88;;;26.00;14.70;;;;;;5037703;28;20526;-63
2021/05/27 08:36:36;;;;;;;3.72;1.23;;;26.40;19.30;;;;;;5037592;28;20056;-64
2021/05/27 08:39:09;;;;;;;2.38;1.13;;;26.90;16.30;;;;;;5034960;28;20129;-65
2021/05/27 08:41:36;;;;;;;2.30;1.23;;;26.10;15.50;;;;;;5036812;28;20121;-64
2021/05/27 08:44:04;;;;;;;4.15;1.33;;;26.10;19.40;;;;;;5034227;28;20065;-65
2021/05/27 08:46:31;;;;;;;5.60;1.10;;;26.10;21.10;;;;;;5034366;28;20060;-64
2021/05/27 08:49:00;;;;;;;4.22;1.10;;;26.10;13.90;;;;;;5038318;28;20085;-65
2021/05/27 08:51:29;;;;;;;3.55;1.23;;;25.90;13.60;;;;;;5036032;28;20442;-64
2021/05/27 08:53:56;;;;;;;7.05;1.15;;;26.00;29.60;;;;;;5036665;28;20149;-65
2021/05/27 08:56:22;;;;;;;6.38;1.38;;;25.70;26.60;;;;;;5036483;28;20081;-64
2021/05/27 08:58:49;;;;;;;7.55;1.50;;;25.70;14.40;;;;;;5032658;28;20102;-64
2021/05/27 09:01:20;;;;;;;4.18;1.15;;;25.60;14.60;;;;;;5034544;28;20082;-65
2021/05/27 09:03:48;;;;;;;3.33;1.30;;;25.60;14.60;;;;;;5035552;28;20074;-65
2021/05/27 09:06:14;;;;;;;12.90;2.25;;;25.50;15.20;;;;;;5033863;28;20109;-65
2021/05/27 09:08:41;;;;;;;15.55;2.28;;;25.50;14.60;;;;;;5037985;28;20169;-65
2021/05/27 09:11:10;;;;;;;22.33;2.40;;;24.90;32.80;;;;;;5038897;28;20098;-62
2021/05/27 09:13:38;;;;;;;13.20;2.30;;;25.30;37.00;;;;;;5036452;28;20127;-62
2021/05/27 09:16:12;;;;;;;6.07;1.70;;;25.50;21.90;;;;;;5034559;28;20077;-61
2021/05/27 09:18:40;;;;;;;10.15;2.20;;;25.50;16.50;;;;;;5036873;28;20135;-61
2021/05/27 09:21:10;;;;;;;5.10;1.63;;;25.60;16.20;;;;;;5037233;28;20085;-62
2021/05/27 09:23:50;;;;;;;8.00;2.10;;;25.50;15.80;;;;;;5040330;28;20081;-60
2021/05/27 09:26:17;;;;;;;10.05;2.15;;;25.50;16.50;;;;;;5035078;28;20164;-60
2021/05/27 09:28:46;;;;;;;6.53;2.55;;;25.40;16.20;;;;;;5042534;28;20077;-60
2021/05/27 09:31:15;;;;;;;12.38;3.80;;;25.40;16.80;;;;;;5040999;28;20082;-60
2021/05/27 09:33:44;;;;;;;9.30;2.70;;;25.40;17.30;;;;;;5038578;28;20103;-59
2021/05/27 09:36:13;;;;;;;19.50;6.75;;;25.40;16.80;;;;;;5033836;28;20077;-61
2021/05/27 09:38:55;;;;;;;23.95;7.55;;;25.40;16.50;;;;;;5035742;28;20074;-60
2021/05/27 09:41:28;;;;;;;24.70;8.60;;;25.30;16.50;;;;;;5035043;28;20446;-60
2021/05/27 09:44:01;;;;;;;28.52;8.70;;;25.20;16.60;;;;;;5035608;28;20074;-60
2021/05/27 09:46:31;;;;;;;29.35;9.45;;;25.10;16.50;;;;;;5056296;28;20073;-61
2021/05/27 09:49:16;;;;;;;21.58;9.50;;;25.10;16.80;;;;;;5039900;28;20088;-61
2021/05/27 09:51:43;;;;;;;25.50;10.65;;;25.10;16.60;;;;;;5036346;28;20078;-60
2021/05/27 09:54:09;;;;;;;29.85;10.80;;;25.30;17.90;;;;;;5038133;28;20161;-61
2021/05/27 09:56:41;;;;;;;23.55;10.45;;;25.00;17.90;;;;;;5035383;28;20155;-61
2021/05/27 09:59:09;;;;;;;28.02;10.32;;;24.90;19.30;;;;;;5035088;28;20150;-61
2021/05/27 10:01:36;;;;;;;31.90;10.52;;;25.00;17.20;;;;;;5036830;28;20074;-61
2021/05/27 10:04:14;;;;;;;26.38;10.05;;;24.90;17.60;;;;;;5036260;28;20097;-61
2021/05/27 10:06:41;;;;;;;27.65;10.15;;;24.80;27.30;;;;;;5036092;28;20069;-60
2021/05/27 10:09:09;;;;;;;36.00;12.93;;;24.50;22.90;;;;;;5041381;28;20077;-61
2021/05/27 10:11:37;;;;;;;29.25;11.88;;;24.70;23.20;;;;;;5036491;28;20510;-61
2021/05/27 10:14:05;;;;;;;28.30;11.00;;;24.70;17.00;;;;;;5038614;28;20081;-60
2021/05/27 10:16:31;;;;;;;28.95;10.13;;;24.60;16.80;;;;;;5037417;28;20168;-60
2021/05/27 10:18:58;;;;;;;24.73;8.65;;;24.60;16.60;;;;;;5038048;28;20140;-60
2021/05/27 10:21:26;;;;;;;24.58;7.63;;;24.60;16.60;;;;;;5035621;28;20523;-61
2021/05/27 10:23:53;;;;;;;15.98;4.47;;;24.60;16.40;;;;;;5037337;28;20085;-61
2021/05/27 10:26:20;;;;;;;16.02;5.20;;;24.60;16.30;;;;;;5033354;28;20070;-61
2021/05/27 10:28:49;;;;;;;18.50;6.65;;;24.70;17.30;;;;;;5037589;28;20331;-61
2021/05/27 10:31:20;;;;;;;14.80;5.13;;;24.70;17.90;;;;;;5034683;28;20082;-61
2021/05/27 10:33:46;;;;;;;16.27;4.10;;;24.60;17.70;;;;;;5040208;28;20074;-61
2021/05/27 10:36:13;;;;;;;11.77;3.53;;;24.60;17.60;;;;;;5035288;28;20074;-60
2021/05/27 10:38:40;;;;;;;6.65;2.50;;;24.70;17.30;;;;;;5036401;28;20461;-60
2021/05/27 10:41:08;;;;;;;9.02;2.40;;;24.60;17.20;;;;;;5035420;28;20123;-60
2021/05/27 10:43:35;;;;;;;10.10;2.40;;;24.70;18.30;;;;;;5033131;28;20074;-60
2021/05/27 10:46:04;;;;;;;9.52;2.38;;;24.70;18.30;;;;;;5037696;28;20106;-60
2021/05/27 10:48:39;;;;;;;10.73;2.60;;;24.70;18.10;;;;;;5035673;28;20485;-60
2021/05/27 10:53:54;;;;;;;9.93;2.50;;;24.60;18.00;;;;;;5039590;28;20066;-59
2021/05/27 10:56:38;;;;;;;9.43;2.60;;;24.50;18.10;;;;;;5037282;28;20355;-60
2021/05/27 10:59:10;;;;;;;8.32;2.47;;;24.50;18.00;;;;;;5036494;28;20189;-60
2021/05/27 11:01:37;;;;;;;9.57;2.28;;;24.40;18.40;;;;;;5037002;28;20076;-60
2021/05/27 11:04:05;;;;;;;5.90;2.13;;;23.90;17.20;;;;;;5034980;28;20078;-60
2021/05/27 11:06:39;;;;;;;8.98;2.05;;;24.20;17.70;;;;;;5037311;28;20482;-60
2021/05/27 11:09:16;;;;;;;6.57;2.50;;;24.20;18.80;;;;;;5035484;28;20082;-60
2021/05/27 11:11:47;;;;;;;7.57;2.70;;;24.10;18.70;;;;;;5031248;28;20564;-60
2021/05/27 11:14:35;;;;;;;5.60;2.20;;;24.10;18.40;;;;;;5035748;28;20109;-60
2021/05/27 11:17:26;;;;;;;9.88;2.30;;;24.00;18.90;;;;;;5031649;28;20082;-59
2021/05/27 11:20:14;;;;;;;11.85;2.53;;;24.00;18.70;;;;;;5035440;28;20126;-60
2021/05/27 11:22:55;;;;;;;10.80;2.47;;;23.90;18.80;;;;;;5034356;28;20078;-59
2021/05/27 11:25:25;;;;;;;8.50;2.10;;;23.90;18.90;;;;;;5035101;28;20074;-59
2021/05/27 11:28:01;;;;;;;5.97;2.13;;;23.80;18.90;;;;;;5038153;28;20081;-60
2021/05/27 11:30:44;;;;;;;10.77;2.10;;;23.20;28.30;;;;;;5036376;28;20433;-61
2021/05/27 11:33:13;;;;;;;8.50;2.45;;;23.70;18.10;;;;;;5038055;28;20093;-60
2021/05/27 11:35:43;;;;;;;7.10;2.08;;;23.70;17.90;;;;;;5035045;28;20165;-60
2021/05/27 11:38:30;;;;;;;8.27;1.63;;;23.20;22.10;;;;;;5038055;28;20159;-60
2021/05/27 11:41:03;;;;;;;9.05;2.05;;;23.60;17.90;;;;;;5037325;28;20093;-60
2021/05/27 11:43:35;;;;;;;13.30;2.70;;;23.50;17.90;;;;;;5039200;28;20082;-59
2021/05/27 11:46:07;;;;;;;6.55;2.25;;;23.50;18.30;;;;;;5039307;28;20069;-59
2021/05/27 11:48:42;;;;;;;10.15;3.30;;;23.50;18.60;;;;;;5038767;28;20081;-59
2021/05/27 11:51:20;;;;;;;5.68;2.03;;;23.50;19.40;;;;;;5039108;28;20096;-59
2021/05/27 11:53:52;;;;;;;11.55;2.72;;;23.40;18.90;;;;;;5035786;28;20086;-59
2021/05/27 11:56:30;;;;;;;12.77;2.88;;;23.40;19.50;;;;;;5039139;28;20535;-60
2021/05/27 11:58:56;;;;;;;10.23;2.55;;;23.30;19.00;;;;;;5041979;28;20452;-59
2021/05/27 12:01:29;;;;;;;11.35;2.25;;;23.30;19.80;;;;;;5037555;28;20081;-62
2021/05/27 12:04:17;;;;;;;12.20;2.90;;;23.20;18.90;;;;;;5037453;28;20078;-61
2021/05/27 12:06:54;;;;;;;11.77;3.20;;;23.20;19.90;;;;;;5039708;28;20082;-60
2021/05/27 12:09:37;;;;;;;17.70;4.13;;;23.10;19.10;;;;;;5039113;28;20073;-60
2021/05/27 12:12:12;;;;;;;19.85;5.15;;;23.10;19.50;;;;;;5040752;28;20462;-60
2021/05/27 12:14:51;;;;;;;17.25;5.03;;;23.00;19.60;;;;;;5039275;28;20101;-60
2021/05/27 12:17:21;;;;;;;14.82;5.50;;;23.00;20.30;;;;;;5040403;28;20562;-60
2021/05/27 12:19:52;;;;;;;16.67;4.60;;;23.00;19.70;;;;;;5037133;28;20152;-60
2021/05/27 12:22:19;;;;;;;20.05;3.63;;;22.90;20.50;;;;;;5039904;28;20172;-61
2021/05/27 12:24:47;;;;;;;16.52;3.55;;;22.90;20.70;;;;;;5039980;28;20136;-60
2021/05/27 12:27:14;;;;;;;16.90;4.35;;;22.80;20.70;;;;;;5035732;28;20160;-60
2021/05/27 12:29:41;;;;;;;14.88;4.50;;;22.80;20.90;;;;;;5037263;28;20441;-60
2021/05/27 12:32:08;;;;;;;15.52;4.13;;;22.70;21.10;;;;;;5037768;28;20161;-60
2021/05/27 12:34:41;;;;;;;23.00;4.35;;;23.10;21.70;;;;;;5040295;28;20070;-60
2021/05/27 12:37:07;;;;;;;10.40;3.80;;;22.60;21.30;;;;;;5038052;28;20073;-60
2021/05/27 12:39:39;;;;;;;14.88;4.25;;;22.60;21.00;;;;;;5041333;28;20106;-60
2021/05/27 12:42:10;;;;;;;16.85;4.10;;;22.60;20.80;;;;;;5041183;28;20084;-61
2021/05/27 12:44:44;;;;;;;15.93;3.70;;;22.40;21.10;;;;;;5040762;28;20451;-60
2021/05/27 12:47:24;;;;;;;27.20;4.93;;;22.40;27.70;;;;;;5040944;28;20065;-59
2021/05/27 12:49:52;;;;;;;21.10;5.00;;;22.40;20.90;;;;;;5040160;28;20085;-61
2021/05/27 12:52:39;;;;;;;20.08;4.90;;;22.50;21.90;;;;;;5043641;28;20550;-59
2021/05/27 12:55:08;;;;;;;28.33;5.60;;;22.50;21.70;;;;;;5041293;28;20077;-60
2021/05/27 12:57:48;;;;;;;23.00;6.13;;;22.40;22.70;;;;;;5040699;28;20078;-60
2021/05/27 13:00:15;;;;;;;18.38;5.40;;;22.40;23.10;;;;;;5043897;28;20096;-60
2021/05/27 13:02:42;;;;;;;21.92;5.38;;;22.30;23.10;;;;;;5040721;28;20094;-58
2021/05/27 13:05:18;;;;;;;20.02;5.40;;;22.30;23.60;;;;;;5044493;28;20569;-59
2021/05/27 13:07:59;;;;;;;25.42;5.45;;;22.30;24.50;;;;;;5042409;28;20155;-59
2021/05/27 13:10:35;;;;;;;21.55;5.20;;;22.20;23.10;;;;;;5039964;28;20074;-58
2021/05/27 13:13:04;;;;;;;22.10;5.78;;;22.30;24.40;;;;;;5038269;28;20600;-56
2021/05/27 13:15:41;;;;;;;20.58;5.65;;;22.30;24.70;;;;;;5040408;28;20536;-56
2021/05/27 13:18:10;;;;;;;29.33;5.45;;;22.30;25.60;;;;;;5043813;28;20147;-60
2021/05/27 13:21:03;;;;;;;20.80;5.10;;;22.50;49.10;;;;;;5042605;28;20133;-60
2021/05/27 13:23:32;;;;;;;23.13;6.28;;;22.50;52.70;;;;;;5042324;28;20082;-60
2021/05/27 13:26:18;;;;;;;31.88;6.18;;;22.10;41.20;;;;;;5043523;28;20132;-61
2021/05/27 13:28:45;;;;;;;30.00;6.47;;;22.40;39.00;;;;;;5044072;28;20077;-61
2021/05/27 13:31:12;;;;;;;31.85;7.68;;;22.40;25.10;;;;;;5042910;28;20092;-59
2021/05/27 13:33:39;;;;;;;42.35;7.28;;;22.40;26.30;;;;;;5039797;28;20082;-61
2021/05/27 13:36:06;;;;;;;47.10;8.57;;;22.50;27.40;;;;;;5041033;28;20530;-61
2021/05/27 13:38:33;;;;;;;39.88;8.45;;;22.70;32.80;;;;;;5046074;28;20459;-61
2021/05/27 13:41:02;;;;;;;49.00;9.23;;;22.30;40.20;;;;;;5040119;28;20609;-60
2021/05/27 13:43:33;;;;;;;32.88;7.90;;;23.20;64.40;;;;;;5042436;28;20041;-61
2021/05/27 13:46:07;;;;;;;41.53;8.20;;;22.90;28.80;;;;;;5039462;28;20074;-60
2021/05/27 13:48:35;;;;;;;42.45;10.00;;;23.00;44.90;;;;;;5042950;28;20024;-60
2021/05/27 13:51:03;;;;;;;44.05;8.70;;;23.10;29.80;;;;;;5042368;28;20077;-61
2021/05/27 13:53:30;;;;;;;52.97;10.50;;;23.10;30.20;;;;;;5037544;28;20490;-60
2021/05/27 13:55:58;;;;;;;45.58;10.32;;;23.70;36.20;;;;;;5044917;28;20077;-60
2021/05/27 13:58:25;;;;;;;41.47;10.27;;;23.70;40.50;;;;;;5040254;28;20082;-61
2021/05/27 14:00:53;;;;;;;33.67;10.68;;;23.40;33.50;;;;;;5040010;28;20111;-59
2021/05/27 14:03:21;;;;;;;50.95;9.98;;;23.40;35.50;;;;;;5040992;28;20420;-58
2021/05/27 14:05:48;;;;;;;47.70;12.07;;;23.60;36.60;;;;;;5044041;28;20081;-61
2021/05/27 14:08:17;;;;;;;49.47;11.98;;;23.80;37.50;;;;;;5044315;28;20093;-61